sensor_id;sensor_type;location;lat;lon;timestamp;temperature;humidity
27567;DHT22;15006;48.584;9.186;2023-01-06T00:00:44;6.80;98.90
27567;DHT22;15006;48.584;9.186;2023-01-06T00:03:20;6.80;98.70
27567;DHT22;15006;48.584;9.186;2023-01-06T00:05:48;6.80;98.50
27567;DHT22;15006;48.584;9.186;2023-01-06T00:08:22;6.80;98.30
27567;DHT22;15006;48.584;9.186;2023-01-06T00:10:50;6.80;98.10
27567;DHT22;15006;48.584;9.186;2023-01-06T00:13:16;6.80;98.10
27567;DHT22;15006;48.584;9.186;2023-01-06T00:15:44;6.70;98.00
27567;DHT22;15006;48.584;9.186;2023-01-06T00:18:11;6.70;97.90
27567;DHT22;15006;48.584;9.186;2023-01-06T00:20:40;6.70;97.90
27567;DHT22;15006;48.584;9.186;2023-01-06T00:23:09;6.60;97.70
27567;DHT22;15006;48.584;9.186;2023-01-06T00:25:37;6.50;97.70
27567;DHT22;15006;48.584;9.186;2023-01-06T00:28:04;6.50;97.70
27567;DHT22;15006;48.584;9.186;2023-01-06T00:30:32;6.40;97.50
27567;DHT22;15006;48.584;9.186;2023-01-06T00:32:59;6.40;97.10
27567;DHT22;15006;48.584;9.186;2023-01-06T00:35:28;6.30;96.80
27567;DHT22;15006;48.584;9.186;2023-01-06T00:37:57;6.20;96.60
27567;DHT22;15006;48.584;9.186;2023-01-06T00:40:26;6.20;96.50
27567;DHT22;15006;48.584;9.186;2023-01-06T00:42:54;6.00;96.30
27567;DHT22;15006;48.584;9.186;2023-01-06T00:45:22;5.90;96.40
27567;DHT22;15006;48.584;9.186;2023-01-06T00:47:50;5.90;96.40
27567;DHT22;15006;48.584;9.186;2023-01-06T00:50:16;5.80;96.10
27567;DHT22;15006;48.584;9.186;2023-01-06T00:52:42;5.70;96.00
27567;DHT22;15006;48.584;9.186;2023-01-06T00:55:08;5.60;96.10
27567;DHT22;15006;48.584;9.186;2023-01-06T00:57:34;5.50;96.10
27567;DHT22;15006;48.584;9.186;2023-01-06T01:00:01;5.40;96.20
27567;DHT22;15006;48.584;9.186;2023-01-06T01:02:28;5.30;96.30
27567;DHT22;15006;48.584;9.186;2023-01-06T01:04:56;5.30;96.60
27567;DHT22;15006;48.584;9.186;2023-01-06T01:07:24;5.20;97.00
27567;DHT22;15006;48.584;9.186;2023-01-06T01:09:52;5.20;97.30
27567;DHT22;15006;48.584;9.186;2023-01-06T01:12:20;5.10;97.60
27567;DHT22;15006;48.584;9.186;2023-01-06T01:14:49;5.10;98.10
27567;DHT22;15006;48.584;9.186;2023-01-06T01:17:22;5.10;98.60
27567;DHT22;15006;48.584;9.186;2023-01-06T01:19:53;5.10;99.10
27567;DHT22;15006;48.584;9.186;2023-01-06T01:22:21;5.10;99.60
27567;DHT22;15006;48.584;9.186;2023-01-06T01:24:48;5.10;99.90
27567;DHT22;15006;48.584;9.186;2023-01-06T01:27:14;5.10;99.90
27567;DHT22;15006;48.584;9.186;2023-01-06T01:29:40;5.20;99.90
27567;DHT22;15006;48.584;9.186;2023-01-06T01:32:06;5.20;99.90
27567;DHT22;15006;48.584;9.186;2023-01-06T01:34:33;5.20;99.90
27567;DHT22;15006;48.584;9.186;2023-01-06T01:36:59;5.20;99.90
27567;DHT22;15006;48.584;9.186;2023-01-06T01:39:27;5.20;99.90
27567;DHT22;15006;48.584;9.186;2023-01-06T01:41:55;5.20;99.90
27567;DHT22;15006;48.584;9.186;2023-01-06T01:44:54;5.30;99.90
27567;DHT22;15006;48.584;9.186;2023-01-06T01:47:27;5.30;99.90
27567;DHT22;15006;48.584;9.186;2023-01-06T01:49:59;5.30;99.90
27567;DHT22;15006;48.584;9.186;2023-01-06T01:52:39;5.40;99.90
27567;DHT22;15006;48.584;9.186;2023-01-06T01:55:06;5.40;99.90
27567;DHT22;15006;48.584;9.186;2023-01-06T01:57:40;5.40;99.90
27567;DHT22;15006;48.584;9.186;2023-01-06T02:00:08;5.40;99.90
27567;DHT22;15006;48.584;9.186;2023-01-06T02:02:36;5.40;99.90
27567;DHT22;15006;48.584;9.186;2023-01-06T02:05:06;5.50;99.90
27567;DHT22;15006;48.584;9.186;2023-01-06T02:07:33;5.50;99.90
27567;DHT22;15006;48.584;9.186;2023-01-06T02:12:44;5.50;99.90
27567;DHT22;15006;48.584;9.186;2023-01-06T02:15:33;5.60;99.90
27567;DHT22;15006;48.584;9.186;2023-01-06T02:21:11;5.60;99.90
27567;DHT22;15006;48.584;9.186;2023-01-06T02:32:37;5.70;99.90
27567;DHT22;15006;48.584;9.186;2023-01-06T02:35:37;5.70;99.90
27567;DHT22;15006;48.584;9.186;2023-01-06T02:38:33;5.80;99.90
27567;DHT22;15006;48.584;9.186;2023-01-06T02:43:51;5.80;99.90
27567;DHT22;15006;48.584;9.186;2023-01-06T02:46:53;5.80;99.90
27567;DHT22;15006;48.584;9.186;2023-01-06T02:55:09;5.90;99.90
27567;DHT22;15006;48.584;9.186;2023-01-06T02:57:55;5.90;99.90
27567;DHT22;15006;48.584;9.186;2023-01-06T03:00:34;5.90;99.90
27567;DHT22;15006;48.584;9.186;2023-01-06T03:03:06;5.90;99.90
27567;DHT22;15006;48.584;9.186;2023-01-06T03:05:35;5.80;99.90
27567;DHT22;15006;48.584;9.186;2023-01-06T03:08:08;5.90;99.90
27567;DHT22;15006;48.584;9.186;2023-01-06T03:10:38;5.90;99.90
27567;DHT22;15006;48.584;9.186;2023-01-06T03:13:14;5.90;99.90
27567;DHT22;15006;48.584;9.186;2023-01-06T03:15:43;5.90;99.90
27567;DHT22;15006;48.584;9.186;2023-01-06T03:18:09;5.90;99.90
27567;DHT22;15006;48.584;9.186;2023-01-06T03:20:35;5.90;99.90
27567;DHT22;15006;48.584;9.186;2023-01-06T03:23:01;5.80;99.90
27567;DHT22;15006;48.584;9.186;2023-01-06T03:25:28;5.80;99.90
27567;DHT22;15006;48.584;9.186;2023-01-06T03:27:54;5.80;99.90
27567;DHT22;15006;48.584;9.186;2023-01-06T03:30:20;5.70;99.90
27567;DHT22;15006;48.584;9.186;2023-01-06T03:33:03;5.70;99.60
27567;DHT22;15006;48.584;9.186;2023-01-06T03:44:17;5.40;97.60
27567;DHT22;15006;48.584;9.186;2023-01-06T03:47:04;5.30;97.60
27567;DHT22;15006;48.584;9.186;2023-01-06T03:49:38;5.10;97.50
27567;DHT22;15006;48.584;9.186;2023-01-06T03:52:41;5.10;97.70
27567;DHT22;15006;48.584;9.186;2023-01-06T03:55:20;4.90;97.60
27567;DHT22;15006;48.584;9.186;2023-01-06T03:57:51;4.80;97.70
27567;DHT22;15006;48.584;9.186;2023-01-06T04:00:38;4.70;97.80
27567;DHT22;15006;48.584;9.186;2023-01-06T04:03:11;4.60;98.40
27567;DHT22;15006;48.584;9.186;2023-01-06T04:05:38;4.40;98.70
27567;DHT22;15006;48.584;9.186;2023-01-06T04:08:04;4.40;98.70
27567;DHT22;15006;48.584;9.186;2023-01-06T04:10:30;4.30;98.40
27567;DHT22;15006;48.584;9.186;2023-01-06T04:12:56;4.20;98.10
27567;DHT22;15006;48.584;9.186;2023-01-06T04:15:24;4.10;98.10
27567;DHT22;15006;48.584;9.186;2023-01-06T04:17:52;4.00;98.20
27567;DHT22;15006;48.584;9.186;2023-01-06T04:20:21;4.00;98.50
27567;DHT22;15006;48.584;9.186;2023-01-06T04:22:48;3.90;99.50
27567;DHT22;15006;48.584;9.186;2023-01-06T04:25:14;3.90;99.90
27567;DHT22;15006;48.584;9.186;2023-01-06T04:27:42;3.90;99.90
27567;DHT22;15006;48.584;9.186;2023-01-06T04:30:08;3.80;99.90
27567;DHT22;15006;48.584;9.186;2023-01-06T04:32:34;3.80;99.90
27567;DHT22;15006;48.584;9.186;2023-01-06T04:35:00;3.80;99.90
27567;DHT22;15006;48.584;9.186;2023-01-06T04:37:27;3.80;99.90
27567;DHT22;15006;48.584;9.186;2023-01-06T04:39:53;3.80;99.90
27567;DHT22;15006;48.584;9.186;2023-01-06T04:42:19;3.80;99.90
27567;DHT22;15006;48.584;9.186;2023-01-06T04:44:45;3.80;99.90
27567;DHT22;15006;48.584;9.186;2023-01-06T04:47:10;3.70;99.90
27567;DHT22;15006;48.584;9.186;2023-01-06T04:49:36;3.70;99.90
27567;DHT22;15006;48.584;9.186;2023-01-06T04:52:04;3.70;99.90
27567;DHT22;15006;48.584;9.186;2023-01-06T04:54:30;3.60;99.90
27567;DHT22;15006;48.584;9.186;2023-01-06T04:56:56;3.60;99.90
27567;DHT22;15006;48.584;9.186;2023-01-06T04:59:22;3.60;99.90
27567;DHT22;15006;48.584;9.186;2023-01-06T05:01:48;3.60;99.90
27567;DHT22;15006;48.584;9.186;2023-01-06T05:04:14;3.60;99.90
27567;DHT22;15006;48.584;9.186;2023-01-06T05:06:40;3.70;99.90
27567;DHT22;15006;48.584;9.186;2023-01-06T05:09:06;3.70;99.90
27567;DHT22;15006;48.584;9.186;2023-01-06T05:11:32;3.70;99.90
27567;DHT22;15006;48.584;9.186;2023-01-06T05:13:58;3.70;99.90
27567;DHT22;15006;48.584;9.186;2023-01-06T05:16:29;3.80;99.90
27567;DHT22;15006;48.584;9.186;2023-01-06T05:18:57;3.70;99.90
27567;DHT22;15006;48.584;9.186;2023-01-06T05:21:25;3.70;99.90
27567;DHT22;15006;48.584;9.186;2023-01-06T05:23:53;3.70;99.90
27567;DHT22;15006;48.584;9.186;2023-01-06T05:26:22;3.70;99.90
27567;DHT22;15006;48.584;9.186;2023-01-06T05:28:49;3.60;99.90
27567;DHT22;15006;48.584;9.186;2023-01-06T05:31:16;3.60;99.90
27567;DHT22;15006;48.584;9.186;2023-01-06T05:33:42;3.60;99.90
27567;DHT22;15006;48.584;9.186;2023-01-06T05:36:10;3.60;99.90
27567;DHT22;15006;48.584;9.186;2023-01-06T05:38:38;3.60;99.90
27567;DHT22;15006;48.584;9.186;2023-01-06T05:41:05;3.60;99.90
27567;DHT22;15006;48.584;9.186;2023-01-06T05:43:33;3.60;99.90
27567;DHT22;15006;48.584;9.186;2023-01-06T05:46:04;3.60;99.90
27567;DHT22;15006;48.584;9.186;2023-01-06T05:48:31;3.50;99.90
27567;DHT22;15006;48.584;9.186;2023-01-06T05:51:08;3.50;99.90
27567;DHT22;15006;48.584;9.186;2023-01-06T05:53:39;3.50;99.90
27567;DHT22;15006;48.584;9.186;2023-01-06T05:56:09;3.40;99.90
27567;DHT22;15006;48.584;9.186;2023-01-06T05:58:37;3.40;99.90
27567;DHT22;15006;48.584;9.186;2023-01-06T06:01:21;3.30;99.90
27567;DHT22;15006;48.584;9.186;2023-01-06T06:03:49;3.20;99.90
27567;DHT22;15006;48.584;9.186;2023-01-06T06:06:15;3.20;99.90
27567;DHT22;15006;48.584;9.186;2023-01-06T06:08:42;3.10;99.90
27567;DHT22;15006;48.584;9.186;2023-01-06T06:11:11;3.00;99.90
27567;DHT22;15006;48.584;9.186;2023-01-06T06:13:43;2.90;99.90
27567;DHT22;15006;48.584;9.186;2023-01-06T06:16:12;2.80;99.90
27567;DHT22;15006;48.584;9.186;2023-01-06T06:18:40;2.80;99.90
27567;DHT22;15006;48.584;9.186;2023-01-06T06:21:11;2.70;99.90
27567;DHT22;15006;48.584;9.186;2023-01-06T06:23:38;2.60;99.90
27567;DHT22;15006;48.584;9.186;2023-01-06T06:26:05;2.60;99.90
27567;DHT22;15006;48.584;9.186;2023-01-06T06:28:33;2.50;99.90
27567;DHT22;15006;48.584;9.186;2023-01-06T06:31:12;2.50;99.90
27567;DHT22;15006;48.584;9.186;2023-01-06T06:33:39;2.40;99.90
27567;DHT22;15006;48.584;9.186;2023-01-06T06:36:06;2.40;99.90
27567;DHT22;15006;48.584;9.186;2023-01-06T06:38:37;2.30;99.90
27567;DHT22;15006;48.584;9.186;2023-01-06T06:41:04;2.40;99.90
27567;DHT22;15006;48.584;9.186;2023-01-06T06:43:30;2.30;99.90
27567;DHT22;15006;48.584;9.186;2023-01-06T06:45:56;2.30;99.90
27567;DHT22;15006;48.584;9.186;2023-01-06T06:48:22;2.40;99.90
27567;DHT22;15006;48.584;9.186;2023-01-06T06:50:56;2.40;99.90
27567;DHT22;15006;48.584;9.186;2023-01-06T06:53:22;2.50;99.90
27567;DHT22;15006;48.584;9.186;2023-01-06T06:55:48;2.60;99.90
27567;DHT22;15006;48.584;9.186;2023-01-06T06:58:14;2.70;99.90
27567;DHT22;15006;48.584;9.186;2023-01-06T07:00:40;2.80;99.90
27567;DHT22;15006;48.584;9.186;2023-01-06T07:03:06;3.00;99.90
27567;DHT22;15006;48.584;9.186;2023-01-06T07:05:31;3.10;99.90
27567;DHT22;15006;48.584;9.186;2023-01-06T07:07:57;3.30;99.90
27567;DHT22;15006;48.584;9.186;2023-01-06T07:10:23;3.30;99.90
27567;DHT22;15006;48.584;9.186;2023-01-06T07:12:49;3.40;99.90
27567;DHT22;15006;48.584;9.186;2023-01-06T07:15:15;3.60;99.90
27567;DHT22;15006;48.584;9.186;2023-01-06T07:17:41;3.60;99.90
27567;DHT22;15006;48.584;9.186;2023-01-06T07:20:08;3.80;99.90
27567;DHT22;15006;48.584;9.186;2023-01-06T07:22:40;3.90;99.90
27567;DHT22;15006;48.584;9.186;2023-01-06T07:25:07;4.00;99.90
27567;DHT22;15006;48.584;9.186;2023-01-06T07:27:34;4.10;99.90
27567;DHT22;15006;48.584;9.186;2023-01-06T07:30:01;4.20;99.90
27567;DHT22;15006;48.584;9.186;2023-01-06T07:32:29;4.30;99.90
27567;DHT22;15006;48.584;9.186;2023-01-06T07:34:55;4.40;99.90
27567;DHT22;15006;48.584;9.186;2023-01-06T07:37:21;4.50;99.90
27567;DHT22;15006;48.584;9.186;2023-01-06T07:39:47;4.60;99.90
27567;DHT22;15006;48.584;9.186;2023-01-06T07:42:13;4.70;99.90
27567;DHT22;15006;48.584;9.186;2023-01-06T07:44:39;4.80;99.90
27567;DHT22;15006;48.584;9.186;2023-01-06T07:47:06;4.80;99.90
27567;DHT22;15006;48.584;9.186;2023-01-06T07:49:32;4.90;99.90
27567;DHT22;15006;48.584;9.186;2023-01-06T07:51:58;5.00;99.90
27567;DHT22;15006;48.584;9.186;2023-01-06T07:54:24;5.00;99.90
27567;DHT22;15006;48.584;9.186;2023-01-06T07:56:49;5.10;99.90
27567;DHT22;15006;48.584;9.186;2023-01-06T07:59:15;5.20;99.90
27567;DHT22;15006;48.584;9.186;2023-01-06T08:01:41;5.20;99.90
27567;DHT22;15006;48.584;9.186;2023-01-06T08:04:07;5.30;99.90
27567;DHT22;15006;48.584;9.186;2023-01-06T08:06:33;5.30;99.90
27567;DHT22;15006;48.584;9.186;2023-01-06T08:09:01;5.40;99.90
27567;DHT22;15006;48.584;9.186;2023-01-06T08:11:27;5.40;99.90
27567;DHT22;15006;48.584;9.186;2023-01-06T08:13:54;5.50;99.90
27567;DHT22;15006;48.584;9.186;2023-01-06T08:16:20;5.60;99.90
27567;DHT22;15006;48.584;9.186;2023-01-06T08:18:46;5.60;99.90
27567;DHT22;15006;48.584;9.186;2023-01-06T08:21:12;5.60;99.90
27567;DHT22;15006;48.584;9.186;2023-01-06T08:23:38;5.60;99.90
27567;DHT22;15006;48.584;9.186;2023-01-06T08:26:10;5.60;99.90
27567;DHT22;15006;48.584;9.186;2023-01-06T08:28:41;5.60;99.90
27567;DHT22;15006;48.584;9.186;2023-01-06T08:31:14;5.60;99.90
27567;DHT22;15006;48.584;9.186;2023-01-06T08:33:44;5.60;99.90
27567;DHT22;15006;48.584;9.186;2023-01-06T08:36:13;5.60;99.90
27567;DHT22;15006;48.584;9.186;2023-01-06T08:38:41;5.60;99.90
27567;DHT22;15006;48.584;9.186;2023-01-06T08:41:08;5.60;99.90
27567;DHT22;15006;48.584;9.186;2023-01-06T08:43:35;5.50;99.90
27567;DHT22;15006;48.584;9.186;2023-01-06T08:46:03;5.50;99.90
27567;DHT22;15006;48.584;9.186;2023-01-06T08:48:32;5.40;99.90
27567;DHT22;15006;48.584;9.186;2023-01-06T08:51:17;5.40;99.90
27567;DHT22;15006;48.584;9.186;2023-01-06T08:53:46;5.30;99.90
27567;DHT22;15006;48.584;9.186;2023-01-06T08:56:14;5.30;99.90
27567;DHT22;15006;48.584;9.186;2023-01-06T08:58:52;5.30;99.90
27567;DHT22;15006;48.584;9.186;2023-01-06T09:01:26;5.30;99.90
27567;DHT22;15006;48.584;9.186;2023-01-06T09:03:54;5.30;99.90
27567;DHT22;15006;48.584;9.186;2023-01-06T09:06:20;5.20;99.90
27567;DHT22;15006;48.584;9.186;2023-01-06T09:08:46;5.20;99.90
27567;DHT22;15006;48.584;9.186;2023-01-06T09:11:15;5.20;99.90
27567;DHT22;15006;48.584;9.186;2023-01-06T09:13:43;5.20;99.90
27567;DHT22;15006;48.584;9.186;2023-01-06T09:16:10;5.20;99.90
27567;DHT22;15006;48.584;9.186;2023-01-06T09:18:37;5.20;99.90
27567;DHT22;15006;48.584;9.186;2023-01-06T09:21:04;5.20;99.90
27567;DHT22;15006;48.584;9.186;2023-01-06T09:23:31;5.20;99.90
27567;DHT22;15006;48.584;9.186;2023-01-06T09:25:57;5.20;99.90
27567;DHT22;15006;48.584;9.186;2023-01-06T09:28:24;5.30;99.90
27567;DHT22;15006;48.584;9.186;2023-01-06T09:30:50;5.30;99.90
27567;DHT22;15006;48.584;9.186;2023-01-06T09:33:17;5.30;99.90
27567;DHT22;15006;48.584;9.186;2023-01-06T09:35:44;5.30;99.90
27567;DHT22;15006;48.584;9.186;2023-01-06T09:38:14;5.30;99.90
27567;DHT22;15006;48.584;9.186;2023-01-06T09:44:21;5.40;99.90
27567;DHT22;15006;48.584;9.186;2023-01-06T09:46:52;5.50;99.90
27567;DHT22;15006;48.584;9.186;2023-01-06T09:55:15;5.70;99.90
27567;DHT22;15006;48.584;9.186;2023-01-06T09:58:25;5.70;99.90
27567;DHT22;15006;48.584;9.186;2023-01-06T10:00:54;5.80;99.90
27567;DHT22;15006;48.584;9.186;2023-01-06T10:03:25;5.80;99.90
27567;DHT22;15006;48.584;9.186;2023-01-06T10:25:53;6.50;99.90
27567;DHT22;15006;48.584;9.186;2023-01-06T10:28:42;6.60;99.90
27567;DHT22;15006;48.584;9.186;2023-01-06T10:31:31;6.70;99.90
27567;DHT22;15006;48.584;9.186;2023-01-06T10:34:01;6.90;99.90
27567;DHT22;15006;48.584;9.186;2023-01-06T10:36:40;7.00;99.90
27567;DHT22;15006;48.584;9.186;2023-01-06T10:39:17;7.10;99.90
27567;DHT22;15006;48.584;9.186;2023-01-06T10:44:16;7.20;99.90
27567;DHT22;15006;48.584;9.186;2023-01-06T10:46:44;7.20;99.90
27567;DHT22;15006;48.584;9.186;2023-01-06T10:49:17;7.30;99.90
27567;DHT22;15006;48.584;9.186;2023-01-06T10:51:52;7.30;99.90
27567;DHT22;15006;48.584;9.186;2023-01-06T10:54:31;7.30;99.90
27567;DHT22;15006;48.584;9.186;2023-01-06T10:57:03;7.30;99.90
27567;DHT22;15006;48.584;9.186;2023-01-06T11:00:07;7.40;99.90
27567;DHT22;15006;48.584;9.186;2023-01-06T11:02:33;7.40;99.70
27567;DHT22;15006;48.584;9.186;2023-01-06T11:05:00;7.40;99.90
27567;DHT22;15006;48.584;9.186;2023-01-06T11:07:28;7.50;99.90
27567;DHT22;15006;48.584;9.186;2023-01-06T11:09:54;7.50;99.90
27567;DHT22;15006;48.584;9.186;2023-01-06T11:12:24;7.60;99.90
27567;DHT22;15006;48.584;9.186;2023-01-06T11:14:56;7.70;99.90
27567;DHT22;15006;48.584;9.186;2023-01-06T11:17:28;7.80;99.90
27567;DHT22;15006;48.584;9.186;2023-01-06T11:22:40;8.00;99.00
27567;DHT22;15006;48.584;9.186;2023-01-06T11:27:45;8.20;97.10
27567;DHT22;15006;48.584;9.186;2023-01-06T11:30:26;8.20;97.80
27567;DHT22;15006;48.584;9.186;2023-01-06T11:32:53;8.20;95.80
27567;DHT22;15006;48.584;9.186;2023-01-06T11:35:24;8.20;96.90
27567;DHT22;15006;48.584;9.186;2023-01-06T11:37:56;8.20;96.80
27567;DHT22;15006;48.584;9.186;2023-01-06T11:43:02;8.10;96.90
27567;DHT22;15006;48.584;9.186;2023-01-06T11:48:12;8.20;95.40
27567;DHT22;15006;48.584;9.186;2023-01-06T11:50:49;8.20;95.40
27567;DHT22;15006;48.584;9.186;2023-01-06T11:53:18;8.10;94.90
27567;DHT22;15006;48.584;9.186;2023-01-06T11:56:06;8.10;94.90
27567;DHT22;15006;48.584;9.186;2023-01-06T11:59:08;8.00;95.10
27567;DHT22;15006;48.584;9.186;2023-01-06T12:01:53;7.90;95.10
27567;DHT22;15006;48.584;9.186;2023-01-06T12:07:11;7.90;95.90
27567;DHT22;15006;48.584;9.186;2023-01-06T12:09:43;7.90;96.20
27567;DHT22;15006;48.584;9.186;2023-01-06T12:12:22;7.90;95.70
27567;DHT22;15006;48.584;9.186;2023-01-06T12:14:50;7.90;95.60
27567;DHT22;15006;48.584;9.186;2023-01-06T12:17:35;7.90;95.50
27567;DHT22;15006;48.584;9.186;2023-01-06T12:20:16;8.00;95.50
27567;DHT22;15006;48.584;9.186;2023-01-06T12:23:09;8.00;96.30
27567;DHT22;15006;48.584;9.186;2023-01-06T12:28:18;8.10;94.50
27567;DHT22;15006;48.584;9.186;2023-01-06T12:35:55;8.30;94.50
27567;DHT22;15006;48.584;9.186;2023-01-06T12:39:00;8.30;94.20
27567;DHT22;15006;48.584;9.186;2023-01-06T12:41:36;8.30;93.10
27567;DHT22;15006;48.584;9.186;2023-01-06T12:47:36;8.20;93.00
27567;DHT22;15006;48.584;9.186;2023-01-06T12:50:16;8.30;93.40
27567;DHT22;15006;48.584;9.186;2023-01-06T12:58:36;8.20;93.80
27567;DHT22;15006;48.584;9.186;2023-01-06T13:01:29;8.20;93.50
27567;DHT22;15006;48.584;9.186;2023-01-06T13:21:45;8.00;93.60
27567;DHT22;15006;48.584;9.186;2023-01-06T13:27:52;7.90;93.30
27567;DHT22;15006;48.584;9.186;2023-01-06T13:39:35;7.80;92.90
27567;DHT22;15006;48.584;9.186;2023-01-06T13:42:05;7.80;93.80
27567;DHT22;15006;48.584;9.186;2023-01-06T13:44:36;7.90;94.10
27567;DHT22;15006;48.584;9.186;2023-01-06T13:47:04;7.90;93.40
27567;DHT22;15006;48.584;9.186;2023-01-06T13:49:35;7.90;92.70
27567;DHT22;15006;48.584;9.186;2023-01-06T13:52:03;7.90;93.20
27567;DHT22;15006;48.584;9.186;2023-01-06T13:59:51;7.90;93.10
27567;DHT22;15006;48.584;9.186;2023-01-06T14:05:03;7.90;92.80
27567;DHT22;15006;48.584;9.186;2023-01-06T14:08:03;8.00;93.10
27567;DHT22;15006;48.584;9.186;2023-01-06T14:10:39;7.90;92.50
27567;DHT22;15006;48.584;9.186;2023-01-06T14:16:08;7.90;92.40
27567;DHT22;15006;48.584;9.186;2023-01-06T14:21:28;7.90;92.10
27567;DHT22;15006;48.584;9.186;2023-01-06T14:24:00;7.90;92.50
27567;DHT22;15006;48.584;9.186;2023-01-06T14:26:49;7.90;92.40
27567;DHT22;15006;48.584;9.186;2023-01-06T14:34:51;7.90;92.00
27567;DHT22;15006;48.584;9.186;2023-01-06T14:37:24;7.90;91.60
27567;DHT22;15006;48.584;9.186;2023-01-06T14:39:54;7.90;91.80
27567;DHT22;15006;48.584;9.186;2023-01-06T14:42:33;7.90;91.90
27567;DHT22;15006;48.584;9.186;2023-01-06T14:45:22;7.80;91.90
27567;DHT22;15006;48.584;9.186;2023-01-06T14:48:01;7.80;91.70
27567;DHT22;15006;48.584;9.186;2023-01-06T14:50:35;7.80;92.10
27567;DHT22;15006;48.584;9.186;2023-01-06T14:53:28;7.80;91.80
27567;DHT22;15006;48.584;9.186;2023-01-06T14:55:58;7.80;91.50
27567;DHT22;15006;48.584;9.186;2023-01-06T14:58:34;7.80;92.20
27567;DHT22;15006;48.584;9.186;2023-01-06T15:01:03;7.80;91.70
27567;DHT22;15006;48.584;9.186;2023-01-06T15:03:30;7.80;92.00
27567;DHT22;15006;48.584;9.186;2023-01-06T15:06:15;7.80;92.10
27567;DHT22;15006;48.584;9.186;2023-01-06T15:08:43;7.80;91.60
27567;DHT22;15006;48.584;9.186;2023-01-06T15:11:23;7.80;92.20
27567;DHT22;15006;48.584;9.186;2023-01-06T15:13:53;7.80;91.50
27567;DHT22;15006;48.584;9.186;2023-01-06T15:19:12;7.80;91.50
27567;DHT22;15006;48.584;9.186;2023-01-06T15:21:42;7.80;91.40
27567;DHT22;15006;48.584;9.186;2023-01-06T15:24:26;7.80;91.80
27567;DHT22;15006;48.584;9.186;2023-01-06T15:26:55;7.80;91.60
27567;DHT22;15006;48.584;9.186;2023-01-06T15:29:24;7.80;91.70
27567;DHT22;15006;48.584;9.186;2023-01-06T15:31:52;7.80;91.70
27567;DHT22;15006;48.584;9.186;2023-01-06T15:34:34;7.80;91.60
27567;DHT22;15006;48.584;9.186;2023-01-06T15:37:03;7.70;91.60
27567;DHT22;15006;48.584;9.186;2023-01-06T15:39:32;7.70;91.80
27567;DHT22;15006;48.584;9.186;2023-01-06T15:42:02;7.70;92.00
27567;DHT22;15006;48.584;9.186;2023-01-06T15:44:33;7.70;92.00
27567;DHT22;15006;48.584;9.186;2023-01-06T15:49:36;7.70;92.00
27567;DHT22;15006;48.584;9.186;2023-01-06T15:52:27;7.70;92.30
27567;DHT22;15006;48.584;9.186;2023-01-06T15:55:00;7.60;91.90
27567;DHT22;15006;48.584;9.186;2023-01-06T15:57:32;7.60;92.40
27567;DHT22;15006;48.584;9.186;2023-01-06T16:00:07;7.60;92.40
27567;DHT22;15006;48.584;9.186;2023-01-06T16:02:46;7.60;92.40
27567;DHT22;15006;48.584;9.186;2023-01-06T16:05:39;7.60;92.80
27567;DHT22;15006;48.584;9.186;2023-01-06T16:08:33;7.60;92.20
27567;DHT22;15006;48.584;9.186;2023-01-06T16:13:55;7.50;92.30
27567;DHT22;15006;48.584;9.186;2023-01-06T16:16:25;7.50;92.70
27567;DHT22;15006;48.584;9.186;2023-01-06T16:19:14;7.50;92.60
27567;DHT22;15006;48.584;9.186;2023-01-06T16:21:42;7.50;92.40
27567;DHT22;15006;48.584;9.186;2023-01-06T16:24:20;7.50;92.60
27567;DHT22;15006;48.584;9.186;2023-01-06T16:27:04;7.50;92.30
27567;DHT22;15006;48.584;9.186;2023-01-06T16:29:36;7.50;92.30
27567;DHT22;15006;48.584;9.186;2023-01-06T16:32:27;7.50;92.60
27567;DHT22;15006;48.584;9.186;2023-01-06T16:35:00;7.50;92.40
27567;DHT22;15006;48.584;9.186;2023-01-06T16:37:32;7.40;92.70
27567;DHT22;15006;48.584;9.186;2023-01-06T16:39:58;7.40;93.10
27567;DHT22;15006;48.584;9.186;2023-01-06T16:42:35;7.40;93.00
27567;DHT22;15006;48.584;9.186;2023-01-06T16:45:12;7.40;93.00
27567;DHT22;15006;48.584;9.186;2023-01-06T16:47:42;7.40;93.10
27567;DHT22;15006;48.584;9.186;2023-01-06T16:52:44;7.40;93.10
27567;DHT22;15006;48.584;9.186;2023-01-06T16:55:14;7.40;93.20
27567;DHT22;15006;48.584;9.186;2023-01-06T16:57:41;7.40;93.30
27567;DHT22;15006;48.584;9.186;2023-01-06T17:00:14;7.30;93.40
27567;DHT22;15006;48.584;9.186;2023-01-06T17:02:42;7.30;93.50
27567;DHT22;15006;48.584;9.186;2023-01-06T17:05:22;7.30;93.60
27567;DHT22;15006;48.584;9.186;2023-01-06T17:07:51;7.30;93.50
27567;DHT22;15006;48.584;9.186;2023-01-06T17:10:22;7.30;93.60
27567;DHT22;15006;48.584;9.186;2023-01-06T17:13:00;7.30;93.70
27567;DHT22;15006;48.584;9.186;2023-01-06T17:15:50;7.30;93.50
27567;DHT22;15006;48.584;9.186;2023-01-06T17:18:26;7.20;93.60
27567;DHT22;15006;48.584;9.186;2023-01-06T17:21:10;7.30;93.70
27567;DHT22;15006;48.584;9.186;2023-01-06T17:23:45;7.20;93.70
27567;DHT22;15006;48.584;9.186;2023-01-06T17:26:18;7.20;93.80
27567;DHT22;15006;48.584;9.186;2023-01-06T17:28:46;7.20;93.90
27567;DHT22;15006;48.584;9.186;2023-01-06T17:31:20;7.20;93.90
27567;DHT22;15006;48.584;9.186;2023-01-06T17:33:52;7.20;94.00
27567;DHT22;15006;48.584;9.186;2023-01-06T17:36:23;7.20;93.90
27567;DHT22;15006;48.584;9.186;2023-01-06T17:38:52;7.20;93.80
27567;DHT22;15006;48.584;9.186;2023-01-06T17:41:18;7.10;94.00
27567;DHT22;15006;48.584;9.186;2023-01-06T17:43:45;7.10;94.00
27567;DHT22;15006;48.584;9.186;2023-01-06T17:46:27;7.10;94.00
27567;DHT22;15006;48.584;9.186;2023-01-06T17:49:00;7.00;93.70
27567;DHT22;15006;48.584;9.186;2023-01-06T17:51:32;7.10;94.00
27567;DHT22;15006;48.584;9.186;2023-01-06T17:53:58;7.00;94.10
27567;DHT22;15006;48.584;9.186;2023-01-06T17:56:42;7.00;94.10
27567;DHT22;15006;48.584;9.186;2023-01-06T17:59:13;7.00;94.10
27567;DHT22;15006;48.584;9.186;2023-01-06T18:01:42;6.90;94.00
27567;DHT22;15006;48.584;9.186;2023-01-06T18:04:12;6.90;94.20
27567;DHT22;15006;48.584;9.186;2023-01-06T18:06:41;6.90;94.10
27567;DHT22;15006;48.584;9.186;2023-01-06T18:09:16;6.90;94.20
27567;DHT22;15006;48.584;9.186;2023-01-06T18:11:47;6.80;94.10
27567;DHT22;15006;48.584;9.186;2023-01-06T18:14:20;6.80;94.30
27567;DHT22;15006;48.584;9.186;2023-01-06T18:17:44;6.80;94.40
27567;DHT22;15006;48.584;9.186;2023-01-06T18:19:52;6.80;94.30
27567;DHT22;15006;48.584;9.186;2023-01-06T18:22:21;6.80;94.70
27567;DHT22;15006;48.584;9.186;2023-01-06T18:24:55;6.80;94.40
27567;DHT22;15006;48.584;9.186;2023-01-06T18:27:25;6.80;94.30
27567;DHT22;15006;48.584;9.186;2023-01-06T18:29:55;6.80;94.40
27567;DHT22;15006;48.584;9.186;2023-01-06T18:32:31;6.80;94.40
27567;DHT22;15006;48.584;9.186;2023-01-06T18:35:00;6.70;94.40
27567;DHT22;15006;48.584;9.186;2023-01-06T18:37:30;6.70;94.40
27567;DHT22;15006;48.584;9.186;2023-01-06T18:40:07;6.70;94.40
27567;DHT22;15006;48.584;9.186;2023-01-06T18:42:40;6.70;94.40
27567;DHT22;15006;48.584;9.186;2023-01-06T18:45:25;6.70;94.50
27567;DHT22;15006;48.584;9.186;2023-01-06T18:51:02;6.60;94.30